sensor_id;sensor_type;location;lat;lon;timestamp;P1;durP1;ratioP1;P2;durP2;ratioP2
11481;SDS011;5797;51.662;6.748;2023-12-14T00:01:59;17.60;;;7.97;;
11481;SDS011;5797;51.662;6.748;2023-12-14T00:04:27;14.13;;;7.63;;
11481;SDS011;5797;51.662;6.748;2023-12-14T00:06:55;14.20;;;7.57;;
11481;SDS011;5797;51.662;6.748;2023-12-14T00:09:24;15.73;;;7.73;;
11481;SDS011;5797;51.662;6.748;2023-12-14T00:11:54;15.97;;;6.90;;
11481;SDS011;5797;51.662;6.748;2023-12-14T00:14:22;12.87;;;7.03;;
11481;SDS011;5797;51.662;6.748;2023-12-14T00:16:51;13.07;;;6.87;;
11481;SDS011;5797;51.662;6.748;2023-12-14T00:19:21;15.13;;;7.33;;
11481;SDS011;5797;51.662;6.748;2023-12-14T00:21:51;16.80;;;8.63;;
11481;SDS011;5797;51.662;6.748;2023-12-14T00:24:22;17.33;;;9.03;;
11481;SDS011;5797;51.662;6.748;2023-12-14T00:26:50;15.90;;;8.40;;
11481;SDS011;5797;51.662;6.748;2023-12-14T00:29:21;18.27;;;8.53;;
11481;SDS011;5797;51.662;6.748;2023-12-14T00:31:50;14.20;;;7.90;;
11481;SDS011;5797;51.662;6.748;2023-12-14T00:34:19;14.07;;;7.80;;
11481;SDS011;5797;51.662;6.748;2023-12-14T00:36:48;16.53;;;8.77;;
11481;SDS011;5797;51.662;6.748;2023-12-14T00:39:17;14.83;;;8.23;;
11481;SDS011;5797;51.662;6.748;2023-12-14T00:41:45;15.23;;;7.77;;
11481;SDS011;5797;51.662;6.748;2023-12-14T00:44:14;15.27;;;8.47;;
11481;SDS011;5797;51.662;6.748;2023-12-14T00:46:42;14.50;;;8.63;;
11481;SDS011;5797;51.662;6.748;2023-12-14T00:49:11;15.27;;;8.47;;
11481;SDS011;5797;51.662;6.748;2023-12-14T00:51:43;17.63;;;9.20;;
11481;SDS011;5797;51.662;6.748;2023-12-14T00:54:11;21.60;;;10.30;;
11481;SDS011;5797;51.662;6.748;2023-12-14T00:56:40;21.30;;;10.30;;
11481;SDS011;5797;51.662;6.748;2023-12-14T00:59:08;18.67;;;9.90;;
11481;SDS011;5797;51.662;6.748;2023-12-14T01:01:36;19.80;;;9.57;;
11481;SDS011;5797;51.662;6.748;2023-12-14T01:04:05;19.40;;;9.63;;
11481;SDS011;5797;51.662;6.748;2023-12-14T01:06:33;18.70;;;10.17;;
11481;SDS011;5797;51.662;6.748;2023-12-14T01:09:03;18.23;;;9.13;;
11481;SDS011;5797;51.662;6.748;2023-12-14T01:11:32;18.17;;;9.07;;
11481;SDS011;5797;51.662;6.748;2023-12-14T01:14:00;16.60;;;9.40;;
11481;SDS011;5797;51.662;6.748;2023-12-14T01:16:29;17.97;;;9.20;;
11481;SDS011;5797;51.662;6.748;2023-12-14T01:18:57;19.20;;;9.67;;
11481;SDS011;5797;51.662;6.748;2023-12-14T01:21:26;19.27;;;9.10;;
11481;SDS011;5797;51.662;6.748;2023-12-14T01:23:54;19.60;;;9.87;;
11481;SDS011;5797;51.662;6.748;2023-12-14T01:26:24;20.43;;;9.33;;
11481;SDS011;5797;51.662;6.748;2023-12-14T01:28:53;20.13;;;9.77;;
11481;SDS011;5797;51.662;6.748;2023-12-14T01:31:21;20.10;;;9.37;;
11481;SDS011;5797;51.662;6.748;2023-12-14T01:33:51;20.03;;;8.63;;
11481;SDS011;5797;51.662;6.748;2023-12-14T01:36:20;18.87;;;9.23;;
11481;SDS011;5797;51.662;6.748;2023-12-14T01:38:49;13.77;;;8.27;;
11481;SDS011;5797;51.662;6.748;2023-12-14T01:41:18;18.17;;;8.80;;
11481;SDS011;5797;51.662;6.748;2023-12-14T01:43:48;14.53;;;7.93;;
11481;SDS011;5797;51.662;6.748;2023-12-14T01:46:17;16.90;;;8.50;;
11481;SDS011;5797;51.662;6.748;2023-12-14T01:48:45;17.77;;;8.77;;
11481;SDS011;5797;51.662;6.748;2023-12-14T01:51:14;18.73;;;8.53;;
11481;SDS011;5797;51.662;6.748;2023-12-14T01:53:42;19.07;;;9.87;;
11481;SDS011;5797;51.662;6.748;2023-12-14T01:56:11;17.50;;;9.07;;
11481;SDS011;5797;51.662;6.748;2023-12-14T01:58:39;18.43;;;10.03;;
11481;SDS011;5797;51.662;6.748;2023-12-14T02:01:10;19.63;;;9.80;;
11481;SDS011;5797;51.662;6.748;2023-12-14T02:03:45;20.63;;;10.10;;
11481;SDS011;5797;51.662;6.748;2023-12-14T02:06:14;23.27;;;9.90;;
11481;SDS011;5797;51.662;6.748;2023-12-14T02:08:43;17.93;;;9.97;;
11481;SDS011;5797;51.662;6.748;2023-12-14T02:11:11;19.03;;;10.17;;
11481;SDS011;5797;51.662;6.748;2023-12-14T02:13:40;23.80;;;11.40;;
11481;SDS011;5797;51.662;6.748;2023-12-14T02:16:10;21.83;;;10.67;;
11481;SDS011;5797;51.662;6.748;2023-12-14T02:18:38;23.13;;;10.63;;
11481;SDS011;5797;51.662;6.748;2023-12-14T02:21:11;22.83;;;12.20;;
11481;SDS011;5797;51.662;6.748;2023-12-14T02:23:43;24.47;;;11.37;;
11481;SDS011;5797;51.662;6.748;2023-12-14T02:26:12;27.07;;;13.27;;
11481;SDS011;5797;51.662;6.748;2023-12-14T02:28:40;25.90;;;11.93;;
11481;SDS011;5797;51.662;6.748;2023-12-14T02:31:09;26.77;;;12.40;;
11481;SDS011;5797;51.662;6.748;2023-12-14T02:33:37;29.57;;;12.40;;
11481;SDS011;5797;51.662;6.748;2023-12-14T02:36:06;32.90;;;13.20;;
11481;SDS011;5797;51.662;6.748;2023-12-14T02:38:35;24.23;;;11.93;;
11481;SDS011;5797;51.662;6.748;2023-12-14T02:41:05;31.87;;;12.60;;
11481;SDS011;5797;51.662;6.748;2023-12-14T02:43:33;32.57;;;12.60;;
11481;SDS011;5797;51.662;6.748;2023-12-14T02:46:02;31.83;;;12.77;;
11481;SDS011;5797;51.662;6.748;2023-12-14T02:48:30;28.07;;;12.37;;
11481;SDS011;5797;51.662;6.748;2023-12-14T02:50:59;26.63;;;12.00;;
11481;SDS011;5797;51.662;6.748;2023-12-14T02:53:27;22.70;;;10.47;;
11481;SDS011;5797;51.662;6.748;2023-12-14T02:55:56;22.37;;;11.37;;
11481;SDS011;5797;51.662;6.748;2023-12-14T02:58:33;24.63;;;10.37;;
11481;SDS011;5797;51.662;6.748;2023-12-14T03:01:01;23.60;;;11.67;;
11481;SDS011;5797;51.662;6.748;2023-12-14T03:03:33;23.70;;;10.70;;
11481;SDS011;5797;51.662;6.748;2023-12-14T03:06:02;22.27;;;10.57;;
11481;SDS011;5797;51.662;6.748;2023-12-14T03:08:30;22.60;;;10.27;;
11481;SDS011;5797;51.662;6.748;2023-12-14T03:10:59;24.20;;;11.83;;
11481;SDS011;5797;51.662;6.748;2023-12-14T03:13:27;25.73;;;11.57;;
11481;SDS011;5797;51.662;6.748;2023-12-14T03:15:57;24.07;;;11.00;;
11481;SDS011;5797;51.662;6.748;2023-12-14T03:18:27;22.03;;;11.40;;
11481;SDS011;5797;51.662;6.748;2023-12-14T03:20:55;24.47;;;10.67;;
11481;SDS011;5797;51.662;6.748;2023-12-14T03:23:23;18.47;;;9.43;;
11481;SDS011;5797;51.662;6.748;2023-12-14T03:25:52;26.43;;;11.40;;
11481;SDS011;5797;51.662;6.748;2023-12-14T03:28:20;27.33;;;12.03;;
11481;SDS011;5797;51.662;6.748;2023-12-14T03:30:49;23.30;;;11.47;;
11481;SDS011;5797;51.662;6.748;2023-12-14T03:33:19;25.77;;;11.17;;
11481;SDS011;5797;51.662;6.748;2023-12-14T03:35:49;25.03;;;11.83;;
11481;SDS011;5797;51.662;6.748;2023-12-14T03:38:17;21.37;;;10.80;;
11481;SDS011;5797;51.662;6.748;2023-12-14T03:40:45;19.83;;;10.83;;
11481;SDS011;5797;51.662;6.748;2023-12-14T03:43:14;22.97;;;10.80;;
11481;SDS011;5797;51.662;6.748;2023-12-14T03:45:42;24.80;;;11.13;;
11481;SDS011;5797;51.662;6.748;2023-12-14T03:48:11;24.63;;;11.17;;
11481;SDS011;5797;51.662;6.748;2023-12-14T03:50:41;22.23;;;12.13;;
11481;SDS011;5797;51.662;6.748;2023-12-14T03:53:10;24.33;;;11.37;;
11481;SDS011;5797;51.662;6.748;2023-12-14T03:55:38;22.83;;;11.53;;
11481;SDS011;5797;51.662;6.748;2023-12-14T03:58:07;26.70;;;11.80;;
11481;SDS011;5797;51.662;6.748;2023-12-14T04:00:35;25.93;;;11.23;;
11481;SDS011;5797;51.662;6.748;2023-12-14T04:03:04;23.80;;;11.27;;
11481;SDS011;5797;51.662;6.748;2023-12-14T04:05:32;26.10;;;12.50;;
11481;SDS011;5797;51.662;6.748;2023-12-14T04:08:02;34.70;;;13.80;;
11481;SDS011;5797;51.662;6.748;2023-12-14T04:10:30;26.83;;;12.20;;
11481;SDS011;5797;51.662;6.748;2023-12-14T04:12:59;29.50;;;12.43;;
11481;SDS011;5797;51.662;6.748;2023-12-14T04:15:27;30.90;;;13.73;;
11481;SDS011;5797;51.662;6.748;2023-12-14T04:17:56;27.33;;;13.00;;
11481;SDS011;5797;51.662;6.748;2023-12-14T04:20:24;29.73;;;13.37;;
11481;SDS011;5797;51.662;6.748;2023-12-14T04:22:53;29.70;;;13.17;;
11481;SDS011;5797;51.662;6.748;2023-12-14T04:25:33;37.27;;;14.43;;
11481;SDS011;5797;51.662;6.748;2023-12-14T04:28:06;32.63;;;15.03;;
11481;SDS011;5797;51.662;6.748;2023-12-14T04:30:43;32.07;;;14.27;;
11481;SDS011;5797;51.662;6.748;2023-12-14T04:33:11;38.57;;;15.37;;
11481;SDS011;5797;51.662;6.748;2023-12-14T04:35:40;34.33;;;15.37;;
11481;SDS011;5797;51.662;6.748;2023-12-14T04:38:08;35.20;;;14.97;;
11481;SDS011;5797;51.662;6.748;2023-12-14T04:40:38;35.10;;;14.90;;
11481;SDS011;5797;51.662;6.748;2023-12-14T04:43:09;48.27;;;20.03;;
11481;SDS011;5797;51.662;6.748;2023-12-14T04:45:38;44.37;;;17.17;;
11481;SDS011;5797;51.662;6.748;2023-12-14T04:48:06;42.23;;;16.37;;
11481;SDS011;5797;51.662;6.748;2023-12-14T04:50:35;41.47;;;16.80;;
11481;SDS011;5797;51.662;6.748;2023-12-14T04:53:03;36.20;;;15.47;;
11481;SDS011;5797;51.662;6.748;2023-12-14T04:55:32;39.90;;;16.97;;
11481;SDS011;5797;51.662;6.748;2023-12-14T04:58:02;40.07;;;16.00;;
11481;SDS011;5797;51.662;6.748;2023-12-14T05:00:30;36.27;;;16.10;;
11481;SDS011;5797;51.662;6.748;2023-12-14T05:02:59;41.03;;;16.57;;
11481;SDS011;5797;51.662;6.748;2023-12-14T05:05:27;32.07;;;15.73;;
11481;SDS011;5797;51.662;6.748;2023-12-14T05:07:56;33.53;;;15.23;;
11481;SDS011;5797;51.662;6.748;2023-12-14T05:10:24;33.57;;;15.47;;
11481;SDS011;5797;51.662;6.748;2023-12-14T05:12:52;42.60;;;14.73;;
11481;SDS011;5797;51.662;6.748;2023-12-14T05:15:22;36.27;;;16.07;;
11481;SDS011;5797;51.662;6.748;2023-12-14T05:17:51;32.63;;;15.90;;
11481;SDS011;5797;51.662;6.748;2023-12-14T05:20:19;37.83;;;16.97;;
11481;SDS011;5797;51.662;6.748;2023-12-14T05:22:48;35.10;;;15.97;;
11481;SDS011;5797;51.662;6.748;2023-12-14T05:25:16;38.33;;;16.13;;
11481;SDS011;5797;51.662;6.748;2023-12-14T05:27:45;39.40;;;15.80;;
11481;SDS011;5797;51.662;6.748;2023-12-14T05:30:13;38.13;;;16.37;;
11481;SDS011;5797;51.662;6.748;2023-12-14T05:32:43;37.10;;;16.17;;
11481;SDS011;5797;51.662;6.748;2023-12-14T05:35:12;36.43;;;15.60;;
11481;SDS011;5797;51.662;6.748;2023-12-14T05:37:40;38.67;;;15.83;;
11481;SDS011;5797;51.662;6.748;2023-12-14T05:40:10;32.53;;;14.87;;
11481;SDS011;5797;51.662;6.748;2023-12-14T05:42:56;31.40;;;15.00;;
11481;SDS011;5797;51.662;6.748;2023-12-14T05:45:25;33.07;;;15.67;;
11481;SDS011;5797;51.662;6.748;2023-12-14T05:47:54;34.53;;;14.83;;
11481;SDS011;5797;51.662;6.748;2023-12-14T05:50:23;35.07;;;15.17;;
11481;SDS011;5797;51.662;6.748;2023-12-14T05:52:52;37.63;;;14.53;;
11481;SDS011;5797;51.662;6.748;2023-12-14T05:55:21;30.57;;;15.27;;
11481;SDS011;5797;51.662;6.748;2023-12-14T05:57:50;41.30;;;15.83;;
11481;SDS011;5797;51.662;6.748;2023-12-14T06:00:19;36.23;;;16.13;;
11481;SDS011;5797;51.662;6.748;2023-12-14T06:02:47;39.40;;;16.73;;
11481;SDS011;5797;51.662;6.748;2023-12-14T06:05:17;38.03;;;17.37;;
11481;SDS011;5797;51.662;6.748;2023-12-14T06:07:46;37.93;;;17.40;;
11481;SDS011;5797;51.662;6.748;2023-12-14T06:10:14;42.30;;;17.40;;
11481;SDS011;5797;51.662;6.748;2023-12-14T06:12:45;36.13;;;16.70;;
11481;SDS011;5797;51.662;6.748;2023-12-14T06:15:13;34.30;;;16.40;;
11481;SDS011;5797;51.662;6.748;2023-12-14T06:17:42;38.20;;;17.60;;
11481;SDS011;5797;51.662;6.748;2023-12-14T06:20:10;39.87;;;16.90;;
11481;SDS011;5797;51.662;6.748;2023-12-14T06:22:41;36.57;;;16.83;;
11481;SDS011;5797;51.662;6.748;2023-12-14T06:25:10;36.73;;;16.63;;
11481;SDS011;5797;51.662;6.748;2023-12-14T06:27:39;32.93;;;14.97;;
11481;SDS011;5797;51.662;6.748;2023-12-14T06:30:07;35.63;;;16.43;;
11481;SDS011;5797;51.662;6.748;2023-12-14T06:32:38;41.07;;;16.83;;
11481;SDS011;5797;51.662;6.748;2023-12-14T06:35:07;34.20;;;16.57;;
11481;SDS011;5797;51.662;6.748;2023-12-14T06:37:38;34.00;;;15.97;;
11481;SDS011;5797;51.662;6.748;2023-12-14T06:40:08;34.60;;;16.07;;
11481;SDS011;5797;51.662;6.748;2023-12-14T06:42:37;31.20;;;14.20;;
11481;SDS011;5797;51.662;6.748;2023-12-14T06:45:06;35.37;;;16.70;;
11481;SDS011;5797;51.662;6.748;2023-12-14T06:47:37;39.00;;;16.97;;
11481;SDS011;5797;51.662;6.748;2023-12-14T06:50:05;40.93;;;17.07;;
11481;SDS011;5797;51.662;6.748;2023-12-14T06:52:34;39.03;;;16.60;;
11481;SDS011;5797;51.662;6.748;2023-12-14T06:55:03;36.23;;;16.77;;
11481;SDS011;5797;51.662;6.748;2023-12-14T06:57:35;34.60;;;15.57;;
11481;SDS011;5797;51.662;6.748;2023-12-14T07:00:03;38.50;;;16.53;;
11481;SDS011;5797;51.662;6.748;2023-12-14T07:02:32;35.00;;;16.67;;
11481;SDS011;5797;51.662;6.748;2023-12-14T07:05:01;40.83;;;17.33;;
11481;SDS011;5797;51.662;6.748;2023-12-14T07:07:29;34.40;;;16.20;;
11481;SDS011;5797;51.662;6.748;2023-12-14T07:09:58;39.47;;;17.00;;
11481;SDS011;5797;51.662;6.748;2023-12-14T07:12:26;36.87;;;15.93;;
11481;SDS011;5797;51.662;6.748;2023-12-14T07:14:56;37.40;;;17.40;;
11481;SDS011;5797;51.662;6.748;2023-12-14T07:17:24;38.40;;;16.63;;
11481;SDS011;5797;51.662;6.748;2023-12-14T07:19:53;32.80;;;14.77;;
11481;SDS011;5797;51.662;6.748;2023-12-14T07:22:26;34.37;;;15.70;;
11481;SDS011;5797;51.662;6.748;2023-12-14T07:24:55;33.50;;;16.07;;
11481;SDS011;5797;51.662;6.748;2023-12-14T07:27:26;29.57;;;14.90;;
11481;SDS011;5797;51.662;6.748;2023-12-14T07:29:55;30.73;;;15.13;;
11481;SDS011;5797;51.662;6.748;2023-12-14T07:32:24;31.50;;;15.00;;
11481;SDS011;5797;51.662;6.748;2023-12-14T07:34:53;31.07;;;13.80;;
11481;SDS011;5797;51.662;6.748;2023-12-14T07:37:22;32.70;;;14.90;;
11481;SDS011;5797;51.662;6.748;2023-12-14T07:39:50;30.17;;;13.50;;
11481;SDS011;5797;51.662;6.748;2023-12-14T07:42:19;29.10;;;14.03;;
11481;SDS011;5797;51.662;6.748;2023-12-14T07:44:47;33.93;;;16.57;;
11481;SDS011;5797;51.662;6.748;2023-12-14T07:47:17;33.83;;;14.17;;
11481;SDS011;5797;51.662;6.748;2023-12-14T07:49:46;30.93;;;13.93;;
11481;SDS011;5797;51.662;6.748;2023-12-14T07:52:17;31.47;;;15.00;;
11481;SDS011;5797;51.662;6.748;2023-12-14T07:54:46;34.10;;;15.10;;
11481;SDS011;5797;51.662;6.748;2023-12-14T07:57:14;30.40;;;14.43;;
11481;SDS011;5797;51.662;6.748;2023-12-14T07:59:43;30.40;;;14.60;;
11481;SDS011;5797;51.662;6.748;2023-12-14T08:02:12;34.00;;;16.17;;
11481;SDS011;5797;51.662;6.748;2023-12-14T08:04:42;33.50;;;14.40;;
11481;SDS011;5797;51.662;6.748;2023-12-14T08:07:10;35.23;;;14.87;;
11481;SDS011;5797;51.662;6.748;2023-12-14T08:09:39;32.10;;;14.97;;
11481;SDS011;5797;51.662;6.748;2023-12-14T08:12:07;32.10;;;15.03;;
11481;SDS011;5797;51.662;6.748;2023-12-14T08:14:36;30.73;;;14.93;;
11481;SDS011;5797;51.662;6.748;2023-12-14T08:17:08;32.87;;;15.73;;
11481;SDS011;5797;51.662;6.748;2023-12-14T08:19:36;33.50;;;13.53;;
11481;SDS011;5797;51.662;6.748;2023-12-14T08:22:06;32.57;;;14.77;;
11481;SDS011;5797;51.662;6.748;2023-12-14T08:24:38;29.40;;;13.20;;
11481;SDS011;5797;51.662;6.748;2023-12-14T08:27:09;28.63;;;13.60;;
11481;SDS011;5797;51.662;6.748;2023-12-14T08:29:37;31.77;;;14.23;;
11481;SDS011;5797;51.662;6.748;2023-12-14T08:32:05;26.73;;;12.90;;
11481;SDS011;5797;51.662;6.748;2023-12-14T08:34:34;29.50;;;13.80;;
11481;SDS011;5797;51.662;6.748;2023-12-14T08:37:03;30.30;;;13.60;;
11481;SDS011;5797;51.662;6.748;2023-12-14T08:39:33;26.57;;;12.63;;
11481;SDS011;5797;51.662;6.748;2023-12-14T08:42:02;27.83;;;12.93;;
11481;SDS011;5797;51.662;6.748;2023-12-14T08:44:31;24.43;;;11.73;;
11481;SDS011;5797;51.662;6.748;2023-12-14T08:46:59;23.27;;;11.90;;
11481;SDS011;5797;51.662;6.748;2023-12-14T08:49:29;27.97;;;12.07;;
11481;SDS011;5797;51.662;6.748;2023-12-14T08:51:57;22.77;;;12.40;;
11481;SDS011;5797;51.662;6.748;2023-12-14T08:54:26;25.30;;;12.00;;
11481;SDS011;5797;51.662;6.748;2023-12-14T08:56:57;22.07;;;11.50;;
11481;SDS011;5797;51.662;6.748;2023-12-14T08:59:27;21.40;;;11.50;;
11481;SDS011;5797;51.662;6.748;2023-12-14T09:01:59;24.73;;;11.67;;
11481;SDS011;5797;51.662;6.748;2023-12-14T09:04:27;22.93;;;10.57;;
11481;SDS011;5797;51.662;6.748;2023-12-14T09:06:56;24.10;;;11.20;;
11481;SDS011;5797;51.662;6.748;2023-12-14T09:09:24;21.53;;;10.17;;
11481;SDS011;5797;51.662;6.748;2023-12-14T09:11:52;19.87;;;10.20;;
11481;SDS011;5797;51.662;6.748;2023-12-14T09:14:22;18.50;;;9.93;;
11481;SDS011;5797;51.662;6.748;2023-12-14T09:16:51;21.50;;;10.93;;
11481;SDS011;5797;51.662;6.748;2023-12-14T09:19:22;18.67;;;9.73;;
11481;SDS011;5797;51.662;6.748;2023-12-14T09:21:50;23.87;;;10.70;;
11481;SDS011;5797;51.662;6.748;2023-12-14T09:24:19;21.50;;;10.87;;
11481;SDS011;5797;51.662;6.748;2023-12-14T09:26:47;21.00;;;10.37;;
11481;SDS011;5797;51.662;6.748;2023-12-14T09:29:16;18.80;;;9.80;;
11481;SDS011;5797;51.662;6.748;2023-12-14T09:31:46;18.33;;;9.50;;
11481;SDS011;5797;51.662;6.748;2023-12-14T09:34:14;18.13;;;9.17;;
11481;SDS011;5797;51.662;6.748;2023-12-14T09:36:43;18.67;;;8.80;;
11481;SDS011;5797;51.662;6.748;2023-12-14T09:39:11;19.60;;;9.73;;
11481;SDS011;5797;51.662;6.748;2023-12-14T09:41:42;21.27;;;9.57;;
11481;SDS011;5797;51.662;6.748;2023-12-14T09:44:10;18.93;;;9.43;;
11481;SDS011;5797;51.662;6.748;2023-12-14T09:46:39;18.77;;;9.23;;
11481;SDS011;5797;51.662;6.748;2023-12-14T09:49:13;19.10;;;10.33;;
11481;SDS011;5797;51.662;6.748;2023-12-14T09:51:41;18.57;;;9.93;;
11481;SDS011;5797;51.662;6.748;2023-12-14T09:54:10;21.43;;;10.73;;
11481;SDS011;5797;51.662;6.748;2023-12-14T09:56:44;16.30;;;9.50;;
11481;SDS011;5797;51.662;6.748;2023-12-14T09:59:14;17.13;;;8.67;;
11481;SDS011;5797;51.662;6.748;2023-12-14T10:01:42;16.17;;;9.20;;
11481;SDS011;5797;51.662;6.748;2023-12-14T10:04:14;22.00;;;9.60;;
11481;SDS011;5797;51.662;6.748;2023-12-14T10:06:44;23.27;;;9.13;;
11481;SDS011;5797;51.662;6.748;2023-12-14T10:09:14;17.90;;;9.37;;
11481;SDS011;5797;51.662;6.748;2023-12-14T10:11:45;18.77;;;9.57;;
11481;SDS011;5797;51.662;6.748;2023-12-14T10:14:20;18.43;;;10.00;;
11481;SDS011;5797;51.662;6.748;2023-12-14T10:16:51;18.23;;;9.57;;
11481;SDS011;5797;51.662;6.748;2023-12-14T10:19:28;16.13;;;9.33;;
11481;SDS011;5797;51.662;6.748;2023-12-14T10:21:57;17.43;;;9.73;;
11481;SDS011;5797;51.662;6.748;2023-12-14T10:24:25;19.13;;;8.03;;
11481;SDS011;5797;51.662;6.748;2023-12-14T10:26:54;19.77;;;9.33;;
11481;SDS011;5797;51.662;6.748;2023-12-14T10:29:22;16.70;;;8.73;;
11481;SDS011;5797;51.662;6.748;2023-12-14T10:31:51;16.87;;;8.83;;
11481;SDS011;5797;51.662;6.748;2023-12-14T10:34:20;19.60;;;9.43;;
11481;SDS011;5797;51.662;6.748;2023-12-14T10:36:50;21.27;;;9.27;;
11481;SDS011;5797;51.662;6.748;2023-12-14T10:39:19;18.40;;;8.47;;
11481;SDS011;5797;51.662;6.748;2023-12-14T10:41:47;15.70;;;8.97;;
11481;SDS011;5797;51.662;6.748;2023-12-14T10:44:20;18.93;;;8.80;;
11481;SDS011;5797;51.662;6.748;2023-12-14T10:46:57;16.60;;;8.37;;
11481;SDS011;5797;51.662;6.748;2023-12-14T10:49:26;16.33;;;8.97;;
11481;SDS011;5797;51.662;6.748;2023-12-14T10:51:57;18.57;;;8.33;;
11481;SDS011;5797;51.662;6.748;2023-12-14T10:54:26;21.43;;;9.33;;
11481;SDS011;5797;51.662;6.748;2023-12-14T10:56:56;15.10;;;8.67;;
11481;SDS011;5797;51.662;6.748;2023-12-14T10:59:25;16.80;;;8.73;;
11481;SDS011;5797;51.662;6.748;2023-12-14T11:01:54;15.60;;;7.80;;
11481;SDS011;5797;51.662;6.748;2023-12-14T11:04:25;15.23;;;8.40;;
11481;SDS011;5797;51.662;6.748;2023-12-14T11:06:54;16.70;;;8.13;;
11481;SDS011;5797;51.662;6.748;2023-12-14T11:09:24;19.90;;;8.50;;
11481;SDS011;5797;51.662;6.748;2023-12-14T11:11:57;13.03;;;7.33;;
11481;SDS011;5797;51.662;6.748;2023-12-14T11:14:27;22.57;;;9.30;;
11481;SDS011;5797;51.662;6.748;2023-12-14T11:16:56;16.93;;;8.23;;
11481;SDS011;5797;51.662;6.748;2023-12-14T11:19:30;16.90;;;7.83;;
11481;SDS011;5797;51.662;6.748;2023-12-14T11:22:22;12.83;;;7.30;;
11481;SDS011;5797;51.662;6.748;2023-12-14T11:24:53;15.57;;;8.50;;
11481;SDS011;5797;51.662;6.748;2023-12-14T11:27:26;13.77;;;7.50;;
11481;SDS011;5797;51.662;6.748;2023-12-14T11:29:56;15.30;;;8.70;;
11481;SDS011;5797;51.662;6.748;2023-12-14T11:32:25;16.67;;;8.47;;
11481;SDS011;5797;51.662;6.748;2023-12-14T11:34:55;15.03;;;7.80;;
11481;SDS011;5797;51.662;6.748;2023-12-14T11:37:24;15.37;;;8.37;;
11481;SDS011;5797;51.662;6.748;2023-12-14T11:39:54;14.60;;;8.13;;
11481;SDS011;5797;51.662;6.748;2023-12-14T11:42:22;14.03;;;7.50;;
11481;SDS011;5797;51.662;6.748;2023-12-14T11:44:52;14.67;;;7.90;;
11481;SDS011;5797;51.662;6.748;2023-12-14T11:47:20;14.77;;;7.43;;
11481;SDS011;5797;51.662;6.748;2023-12-14T11:49:49;15.63;;;8.50;;
11481;SDS011;5797;51.662;6.748;2023-12-14T11:52:17;16.07;;;8.47;;
11481;SDS011;5797;51.662;6.748;2023-12-14T11:54:46;21.77;;;9.47;;
11481;SDS011;5797;51.662;6.748;2023-12-14T11:57:17;18.27;;;8.97;;
11481;SDS011;5797;51.662;6.748;2023-12-14T11:59:45;16.20;;;8.80;;
11481;SDS011;5797;51.662;6.748;2023-12-14T12:02:22;15.20;;;8.43;;
11481;SDS011;5797;51.662;6.748;2023-12-14T12:04:51;18.43;;;8.70;;
11481;SDS011;5797;51.662;6.748;2023-12-14T12:07:20;15.63;;;8.83;;
11481;SDS011;5797;51.662;6.748;2023-12-14T12:09:49;18.03;;;9.23;;
11481;SDS011;5797;51.662;6.748;2023-12-14T12:12:19;14.87;;;8.87;;
11481;SDS011;5797;51.662;6.748;2023-12-14T12:14:47;18.00;;;9.87;;
11481;SDS011;5797;51.662;6.748;2023-12-14T12:17:19;18.33;;;9.07;;
11481;SDS011;5797;51.662;6.748;2023-12-14T12:19:48;15.10;;;8.40;;
11481;SDS011;5797;51.662;6.748;2023-12-14T12:22:17;17.07;;;9.17;;
11481;SDS011;5797;51.662;6.748;2023-12-14T12:24:45;17.10;;;9.67;;
11481;SDS011;5797;51.662;6.748;2023-12-14T12:27:20;18.83;;;9.60;;
11481;SDS011;5797;51.662;6.748;2023-12-14T12:29:48;15.57;;;9.27;;
11481;SDS011;5797;51.662;6.748;2023-12-14T12:32:20;19.03;;;9.30;;
11481;SDS011;5797;51.662;6.748;2023-12-14T12:34:48;18.10;;;9.27;;
11481;SDS011;5797;51.662;6.748;2023-12-14T12:37:17;20.40;;;9.10;;
11481;SDS011;5797;51.662;6.748;2023-12-14T12:39:45;16.90;;;8.57;;
11481;SDS011;5797;51.662;6.748;2023-12-14T12:42:14;15.50;;;9.53;;
11481;SDS011;5797;51.662;6.748;2023-12-14T12:44:44;16.00;;;8.90;;
11481;SDS011;5797;51.662;6.748;2023-12-14T12:47:12;18.83;;;9.73;;
11481;SDS011;5797;51.662;6.748;2023-12-14T12:49:41;15.90;;;8.47;;
11481;SDS011;5797;51.662;6.748;2023-12-14T12:52:10;15.73;;;8.63;;
11481;SDS011;5797;51.662;6.748;2023-12-14T12:54:39;17.40;;;9.17;;
11481;SDS011;5797;51.662;6.748;2023-12-14T12:57:07;16.13;;;8.93;;
11481;SDS011;5797;51.662;6.748;2023-12-14T12:59:36;18.80;;;8.70;;
11481;SDS011;5797;51.662;6.748;2023-12-14T13:02:06;16.90;;;9.40;;
11481;SDS011;5797;51.662;6.748;2023-12-14T13:04:34;17.17;;;8.50;;
11481;SDS011;5797;51.662;6.748;2023-12-14T13:07:04;16.97;;;8.53;;
11481;SDS011;5797;51.662;6.748;2023-12-14T13:09:32;14.97;;;8.93;;
11481;SDS011;5797;51.662;6.748;2023-12-14T13:12:00;17.10;;;8.47;;
11481;SDS011;5797;51.662;6.748;2023-12-14T13:14:29;15.67;;;8.70;;
11481;SDS011;5797;51.662;6.748;2023-12-14T13:16:58;17.90;;;9.07;;
11481;SDS011;5797;51.662;6.748;2023-12-14T13:19:28;13.53;;;8.10;;
11481;SDS011;5797;51.662;6.748;2023-12-14T13:21:56;14.30;;;7.90;;
11481;SDS011;5797;51.662;6.748;2023-12-14T13:24:26;14.10;;;8.37;;
11481;SDS011;5797;51.662;6.748;2023-12-14T13:26:54;14.77;;;8.03;;
11481;SDS011;5797;51.662;6.748;2023-12-14T13:29:23;12.70;;;7.23;;
11481;SDS011;5797;51.662;6.748;2023-12-14T13:31:51;14.93;;;7.67;;
11481;SDS011;5797;51.662;6.748;2023-12-14T13:34:20;17.20;;;8.10;;
11481;SDS011;5797;51.662;6.748;2023-12-14T13:36:50;14.27;;;7.73;;
11481;SDS011;5797;51.662;6.748;2023-12-14T13:39:18;16.13;;;6.93;;
11481;SDS011;5797;51.662;6.748;2023-12-14T13:41:46;14.80;;;7.50;;
11481;SDS011;5797;51.662;6.748;2023-12-14T13:44:16;12.73;;;6.83;;
11481;SDS011;5797;51.662;6.748;2023-12-14T13:46:45;12.17;;;6.83;;
11481;SDS011;5797;51.662;6.748;2023-12-14T13:49:13;13.73;;;7.00;;
11481;SDS011;5797;51.662;6.748;2023-12-14T13:51:42;13.73;;;7.10;;
11481;SDS011;5797;51.662;6.748;2023-12-14T13:54:11;12.30;;;7.03;;
11481;SDS011;5797;51.662;6.748;2023-12-14T13:56:40;11.93;;;6.57;;
11481;SDS011;5797;51.662;6.748;2023-12-14T13:59:09;14.37;;;7.27;;
11481;SDS011;5797;51.662;6.748;2023-12-14T14:01:37;15.27;;;7.17;;
11481;SDS011;5797;51.662;6.748;2023-12-14T14:04:06;14.43;;;6.87;;
11481;SDS011;5797;51.662;6.748;2023-12-14T14:06:36;13.43;;;7.07;;
11481;SDS011;5797;51.662;6.748;2023-12-14T14:09:04;11.63;;;6.47;;
11481;SDS011;5797;51.662;6.748;2023-12-14T14:11:35;14.63;;;7.17;;
11481;SDS011;5797;51.662;6.748;2023-12-14T14:14:04;15.60;;;7.40;;
11481;SDS011;5797;51.662;6.748;2023-12-14T14:16:32;12.90;;;7.57;;
11481;SDS011;5797;51.662;6.748;2023-12-14T14:19:00;14.97;;;7.30;;
11481;SDS011;5797;51.662;6.748;2023-12-14T14:21:29;14.80;;;8.13;;
11481;SDS011;5797;51.662;6.748;2023-12-14T14:23:57;14.50;;;7.83;;
11481;SDS011;5797;51.662;6.748;2023-12-14T14:26:26;12.23;;;7.13;;
11481;SDS011;5797;51.662;6.748;2023-12-14T14:28:56;15.70;;;7.30;;
11481;SDS011;5797;51.662;6.748;2023-12-14T14:31:28;15.47;;;7.33;;
11481;SDS011;5797;51.662;6.748;2023-12-14T14:33:59;13.73;;;7.80;;
11481;SDS011;5797;51.662;6.748;2023-12-14T14:36:28;12.90;;;6.80;;
11481;SDS011;5797;51.662;6.748;2023-12-14T14:38:56;13.50;;;7.23;;
11481;SDS011;5797;51.662;6.748;2023-12-14T14:41:25;14.13;;;7.53;;
11481;SDS011;5797;51.662;6.748;2023-12-14T14:43:53;14.00;;;7.07;;
11481;SDS011;5797;51.662;6.748;2023-12-14T14:46:23;12.47;;;5.87;;
11481;SDS011;5797;51.662;6.748;2023-12-14T14:48:51;12.70;;;6.83;;
11481;SDS011;5797;51.662;6.748;2023-12-14T14:51:20;12.53;;;6.80;;
11481;SDS011;5797;51.662;6.748;2023-12-14T14:53:48;12.53;;;6.57;;